Terminal Aerodrome Forecast
Issued by NWS

Home | Current Version | Previous Version | Text Only | Print | Product List | Glossary On
Versions: 1 2 3 4 5 6 7 8 9 10 11 12 13 14 15 16 17 18 19 20 21 22 23 24 25 26 27 28 29 30 31 32 33 34 35 36 37 38 39 40 41 42 43 44
000
FTUS45 KBYZ 220830 AAB
TAFLVM
TAF AMD
KLVM 220830Z 2209/2306 08009KT P6SM -RA FEW006 BKN035 OVC070
     FM221000 10008KT P6SM VCSH BKN040 OVC070
     FM221200 11008KT P6SM -RA SCT025 OVC040
     FM221500 09008KT P6SM -RA BKN030 OVC050
     FM222100 08009KT 4SM -RA BR SCT012 OVC025=

USA.gov is the U.S. government's official web portal to all federal, state and local government web resources and services.